Time;durP1;ratioP1;P1;durP2;ratioP2;P2;SDS_P1;SDS_P2;PMS_P1;PMS_P2;Temp;Humidity;BMP_temperature;BMP_pressure;BME280_temperature;BME280_humidity;BME280_pressure;Samples;Min_cycle;Max_cycle;Signal;HPM_P1;HPM_P2
2023/04/25 00:01:12;;;;;;;13.03;7.97;;;7.00;99.90;;;;;;2611836;54;20122;-69
2023/04/25 00:07:03;;;;;;;10.50;6.30;;;7.00;99.90;;;;;;2613050;54;20375;-69
2023/04/25 00:12:51;;;;;;;20.57;8.20;;;7.10;99.90;;;;;;2612284;54;20383;-68
2023/04/25 00:18:39;;;;;;;11.60;6.93;;;7.00;99.90;;;;;;2612050;54;20496;-68
2023/04/25 00:24:27;;;;;;;7.83;7.13;;;7.10;99.90;;;;;;2613085;54;20410;-68
2023/04/25 00:30:15;;;;;;;10.10;7.70;;;7.00;99.90;;;;;;2613828;54;20138;-68
2023/04/25 00:36:02;;;;;;;9.57;7.50;;;7.10;99.90;;;;;;2614228;54;20134;-68
2023/04/25 00:41:53;;;;;;;17.60;7.73;;;7.10;99.90;;;;;;2611841;54;20138;-68
2023/04/25 00:47:41;;;;;;;11.00;7.80;;;7.10;99.90;;;;;;2613755;54;20484;-67
2023/04/25 00:57:29;;;;;;;11.23;8.27;;;7.10;99.90;;;;;;2611656;54;20370;-68
2023/04/25 01:03:19;;;;;;;10.30;7.67;;;7.10;99.90;;;;;;2613106;54;20393;-67
2023/04/25 01:09:07;;;;;;;12.03;7.20;;;7.20;99.90;;;;;;2612620;54;20483;-68
2023/04/25 01:14:55;;;;;;;10.80;9.07;;;7.10;99.90;;;;;;2612013;54;20263;-68
2023/04/25 01:20:43;;;;;;;13.47;7.50;;;7.10;99.90;;;;;;2613065;54;20225;-68
2023/04/25 01:26:32;;;;;;;12.07;7.00;;;7.10;99.90;;;;;;2613013;54;20431;-70
2023/04/25 01:32:20;;;;;;;17.60;8.50;;;7.10;99.90;;;;;;2613322;54;20929;-68
2023/04/25 01:38:07;;;;;;;12.57;9.00;;;7.00;99.90;;;;;;2614024;54;20118;-68
2023/04/25 01:43:55;;;;;;;19.83;9.93;;;7.10;99.90;;;;;;2614370;54;20676;-69
2023/04/25 01:49:43;;;;;;;11.87;9.00;;;7.00;99.90;;;;;;2614247;54;20382;-68
2023/04/25 01:55:40;;;;;;;9.30;7.40;;;6.90;99.90;;;;;;2611653;39;20731;-66
2023/04/25 02:01:27;;;;;;;13.53;8.97;;;7.00;99.90;;;;;;2611630;54;20166;-68
2023/04/25 02:07:15;;;;;;;15.27;7.47;;;6.90;99.90;;;;;;2610755;54;20224;-68
2023/04/25 02:13:04;;;;;;;12.73;8.93;;;6.90;99.90;;;;;;2611543;54;20377;-78
2023/04/25 02:18:52;;;;;;;8.50;6.57;;;6.90;99.90;;;;;;2612501;54;20499;-78
2023/04/25 02:24:40;;;;;;;13.50;8.60;;;7.00;99.90;;;;;;2611063;54;20416;-78
2023/04/25 02:30:27;;;;;;;11.30;6.70;;;6.90;99.90;;;;;;2612754;54;20158;-78
2023/04/25 02:36:14;;;;;;;9.50;7.60;;;6.90;99.90;;;;;;2613993;54;20649;-78
2023/04/25 02:42:02;;;;;;;14.40;8.17;;;6.90;99.90;;;;;;2614802;39;20957;-77
2023/04/25 02:47:49;;;;;;;16.77;7.80;;;6.90;99.90;;;;;;2613783;54;20130;-75
2023/04/25 02:57:27;;;;;;;7.40;6.17;;;6.70;99.90;;;;;;2614013;54;20382;-76
2023/04/25 03:03:17;;;;;;;11.07;7.90;;;6.80;99.90;;;;;;2614585;39;20824;-75
2023/04/25 03:09:05;;;;;;;11.63;6.27;;;6.70;99.90;;;;;;2612510;54;20403;-75
2023/04/25 03:14:53;;;;;;;14.80;8.07;;;6.60;99.90;;;;;;2613772;54;20151;-75
2023/04/25 03:20:41;;;;;;;15.83;7.27;;;6.60;99.90;;;;;;2613351;54;20133;-76
2023/04/25 03:26:29;;;;;;;15.70;7.87;;;6.60;99.90;;;;;;2613415;54;20398;-75
2023/04/25 03:32:16;;;;;;;14.63;8.50;;;6.50;99.90;;;;;;2614170;54;20153;-74
2023/04/25 03:38:04;;;;;;;13.10;8.67;;;6.60;99.90;;;;;;2612610;54;20171;-76
2023/04/25 03:41:07;;;;;;;16.30;8.27;;;6.50;99.90;;;;;;2613741;54;20419;-75
2023/04/25 03:43:33;;;;;;;11.80;7.47;;;6.60;99.90;;;;;;2613635;39;20829;-76
2023/04/25 03:49:20;;;;;;;17.43;10.00;;;6.60;99.90;;;;;;2614781;54;20226;-75
2023/04/25 03:55:08;;;;;;;14.27;7.97;;;6.50;99.90;;;;;;2614396;54;20202;-76
2023/04/25 04:00:56;;;;;;;12.20;7.83;;;6.60;99.90;;;;;;2613229;54;20948;-76
2023/04/25 04:06:44;;;;;;;14.33;7.50;;;6.60;99.90;;;;;;2612461;54;20122;-74
2023/04/25 04:12:31;;;;;;;14.00;7.90;;;6.50;99.90;;;;;;2613172;39;20644;-75
2023/04/25 04:18:19;;;;;;;9.43;6.83;;;6.20;99.90;;;;;;2611976;54;20166;-76
2023/04/25 04:24:06;;;;;;;10.10;6.37;;;5.80;99.90;;;;;;2611612;54;20158;-75
2023/04/25 04:29:54;;;;;;;7.17;5.90;;;5.60;99.90;;;;;;2612698;54;20178;-77
2023/04/25 04:35:42;;;;;;;13.73;5.60;;;5.50;99.90;;;;;;2612945;54;20430;-76
2023/04/25 04:41:30;;;;;;;10.40;5.30;;;5.50;99.90;;;;;;2611877;54;20392;-77
2023/04/25 04:47:20;;;;;;;9.43;4.80;;;5.40;99.90;;;;;;2611641;54;20267;-75
2023/04/25 04:57:29;;;;;;;10.17;4.97;;;5.50;99.90;;;;;;2611636;54;20411;-76
2023/04/25 05:03:16;;;;;;;7.97;6.20;;;5.60;99.90;;;;;;2613540;54;20406;-76
2023/04/25 05:09:04;;;;;;;10.33;6.33;;;5.70;99.90;;;;;;2611379;54;20163;-76
2023/04/25 05:14:51;;;;;;;11.80;6.47;;;5.70;99.90;;;;;;2613869;54;20134;-76
2023/04/25 05:20:39;;;;;;;10.70;7.33;;;6.00;99.90;;;;;;2614374;39;20509;-77
2023/04/25 05:26:30;;;;;;;18.33;8.43;;;6.20;99.90;;;;;;2612649;54;20126;-75
2023/04/25 05:32:18;;;;;;;17.90;10.40;;;6.40;99.90;;;;;;2612015;54;20382;-77
2023/04/25 05:38:06;;;;;;;12.53;8.93;;;6.50;99.90;;;;;;2610784;54;20135;-76
2023/04/25 05:43:54;;;;;;;14.43;9.43;;;6.60;99.90;;;;;;2611829;54;20231;-77
2023/04/25 05:49:41;;;;;;;17.43;8.20;;;6.70;99.90;;;;;;2608855;39;20509;-76
2023/04/25 05:52:56;;;;;;;19.50;8.27;;;6.90;99.90;;;;;;2612502;54;20415;-76
2023/04/25 05:55:22;;;;;;;18.70;9.70;;;6.80;99.90;;;;;;2610807;39;20576;-76
2023/04/25 06:01:09;;;;;;;14.67;7.37;;;6.80;99.90;;;;;;2610621;54;20133;-76
2023/04/25 06:06:57;;;;;;;26.03;8.77;;;7.10;99.90;;;;;;2611790;54;20138;-76
2023/04/25 06:12:45;;;;;;;14.93;7.17;;;7.20;99.90;;;;;;2611757;54;20130;-75
2023/04/25 06:18:32;;;;;;;15.33;7.00;;;7.30;99.90;;;;;;2608775;54;20247;-75
2023/04/25 06:24:20;;;;;;;15.63;8.47;;;7.50;99.90;;;;;;2609456;54;20133;-76
2023/04/25 06:30:25;;;;;;;18.73;8.30;;;7.50;99.90;;;;;;2612882;54;20174;-80
2023/04/25 06:36:13;;;;;;;17.47;9.00;;;7.70;99.90;;;;;;2611441;54;20421;-80
2023/04/25 06:42:01;;;;;;;15.80;8.30;;;7.50;99.90;;;;;;2613275;54;20147;-78
2023/04/25 06:47:48;;;;;;;13.67;7.40;;;7.90;99.90;;;;;;2614602;54;20134;-79
2023/04/25 06:53:50;;;;;;;17.63;8.30;;;7.90;99.90;;;;;;2613451;54;20212;-85
2023/04/25 06:59:38;;;;;;;12.37;6.60;;;7.60;99.90;;;;;;2614297;39;20540;-85
2023/04/25 07:05:25;;;;;;;11.40;6.80;;;7.10;99.90;;;;;;2615843;54;20139;-84
2023/04/25 07:11:13;;;;;;;10.17;6.40;;;7.10;99.90;;;;;;2620039;54;20391;-85
2023/04/25 07:17:00;;;;;;;7.33;4.87;;;7.20;99.90;;;;;;2620937;54;20141;-79
2023/04/25 07:22:48;;;;;;;8.30;5.00;;;7.50;99.90;;;;;;2620169;54;20134;-79
2023/04/25 07:25:52;;;;;;;7.03;5.53;;;7.50;99.90;;;;;;2621752;54;20419;-80
2023/04/25 07:28:18;;;;;;;10.03;6.40;;;7.50;99.90;;;;;;2622133;47;20185;-80
2023/04/25 07:34:06;;;;;;;7.53;5.30;;;7.70;99.90;;;;;;2618650;54;20434;-80
2023/04/25 07:39:54;;;;;;;6.07;5.47;;;8.00;99.90;;;;;;2617695;39;20512;-79
2023/04/25 07:45:43;;;;;;;12.27;7.63;;;8.00;99.90;;;;;;2616810;54;20131;-79
2023/04/25 07:51:31;;;;;;;8.57;6.83;;;9.20;99.90;;;;;;2616519;54;20487;-78
2023/04/25 07:57:20;;;;;;;9.80;8.90;;;10.20;99.10;;;;;;2619180;39;20619;-85
2023/04/25 08:03:09;;;;;;;10.80;8.70;;;10.70;64.20;;;;;;2617253;54;20390;-85
2023/04/25 08:08:57;;;;;;;10.90;10.00;;;9.70;76.60;;;;;;2616603;54;20408;-85
2023/04/25 08:14:44;;;;;;;9.53;8.40;;;10.90;60.70;;;;;;2614688;54;20661;-84
2023/04/25 08:20:32;;;;;;;13.20;8.50;;;10.20;61.50;;;;;;2614427;39;20525;-84
2023/04/25 08:30:22;;;;;;;11.50;8.90;;;10.20;43.20;;;;;;2615377;39;20939;-83
2023/04/25 08:36:11;;;;;;;9.67;8.27;;;9.80;38.90;;;;;;2614297;54;20399;-83
2023/04/25 08:42:00;;;;;;;9.67;8.40;;;9.70;42.80;;;;;;2613220;54;20632;-82
2023/04/25 08:47:51;;;;;;;10.77;9.97;;;9.50;38.60;;;;;;2614164;54;20427;-82
2023/04/25 08:53:42;;;;;;;12.40;10.00;;;9.90;43.60;;;;;;2614329;54;20398;-77
2023/04/25 08:59:33;;;;;;;11.50;9.53;;;11.10;33.20;;;;;;2613320;54;20523;-77
2023/04/25 09:05:22;;;;;;;12.87;9.20;;;11.70;22.20;;;;;;2612832;54;20384;-77
2023/04/25 09:11:12;;;;;;;10.17;9.37;;;10.40;23.40;;;;;;2612220;54;20439;-77
2023/04/25 09:17:02;;;;;;;9.90;9.20;;;10.80;20.80;;;;;;2613339;31;20861;-77
2023/04/25 09:25:53;;;;;;;10.97;10.17;;;10.60;17.10;;;;;;2610741;54;20410;-76
2023/04/25 09:28:27;;;;;;;13.03;9.83;;;11.10;18.50;;;;;;2611066;54;20980;-76
2023/04/25 09:34:16;;;;;;;11.53;10.83;;;10.50;14.20;;;;;;2611700;54;20382;-77
2023/04/25 09:40:07;;;;;;;12.20;10.20;;;10.90;13.70;;;;;;2613790;54;20523;-81
2023/04/25 09:45:58;;;;;;;9.80;9.07;;;11.40;16.10;;;;;;2611828;54;20542;-81
2023/04/25 09:52:00;;;;;;;10.30;9.60;;;10.80;13.60;;;;;;2612841;54;20394;-79
2023/04/25 10:04:24;;;;;;;9.37;8.87;;;11.80;1.00;;;;;;2610279;54;20418;-81
2023/04/25 10:13:53;;;;;;;11.33;10.83;;;12.70;1.00;;;;;;2611864;54;20382;-81
2023/04/25 10:19:40;;;;;;;12.17;11.03;;;13.30;1.00;;;;;;2611117;54;20387;-80
2023/04/25 10:25:27;;;;;;;13.87;12.63;;;11.30;1.00;;;;;;2612274;54;20213;-80
2023/04/25 10:31:17;;;;;;;10.97;10.20;;;10.40;1.00;;;;;;2610973;54;20479;-81
2023/04/25 10:37:04;;;;;;;11.00;10.00;;;10.60;1.00;;;;;;2612885;54;20424;-80
2023/04/25 10:42:55;;;;;;;12.43;11.07;;;10.50;1.00;;;;;;2612327;54;20195;-82
2023/04/25 10:48:52;;;;;;;11.10;10.53;;;10.40;1.00;;;;;;2612486;39;20874;-80
2023/04/25 10:54:47;;;;;;;12.13;11.47;;;9.60;1.00;;;;;;2614201;54;20426;-80
2023/04/25 11:00:40;;;;;;;9.50;8.70;;;9.30;8.80;;;;;;2613770;54;20387;-80
2023/04/25 11:03:16;;;;;;;10.87;10.07;;;8.90;27.80;;;;;;2612202;54;20435;-80
2023/04/25 11:05:45;;;;;;;10.07;9.30;;;8.70;39.50;;;;;;2613569;47;20430;-80
2023/04/25 11:11:36;;;;;;;11.10;10.40;;;8.70;64.40;;;;;;2614716;54;20389;-81
2023/04/25 11:17:25;;;;;;;8.77;7.67;;;8.30;99.90;;;;;;2615327;39;20701;-83
2023/04/25 11:23:13;;;;;;;9.13;7.57;;;8.20;99.90;;;;;;2615462;54;20407;-84
2023/04/25 11:29:01;;;;;;;12.27;7.97;;;8.60;99.90;;;;;;2613532;54;20968;-84
2023/04/25 11:34:49;;;;;;;9.03;6.00;;;9.30;99.90;;;;;;2614601;39;20613;-84
2023/04/25 11:40:37;;;;;;;10.90;5.63;;;9.40;92.70;;;;;;2615033;54;20407;-84
2023/04/25 11:46:25;;;;;;;6.57;6.07;;;10.10;51.50;;;;;;2614174;54;20130;-84
2023/04/25 11:52:13;;;;;;;7.30;6.60;;;10.80;22.30;;;;;;2614589;54;20423;-85
2023/04/25 11:58:02;;;;;;;9.20;8.70;;;11.80;3.20;;;;;;2614897;54;20130;-84
2023/04/25 12:03:49;;;;;;;10.50;9.80;;;12.30;1.00;;;;;;2613279;54;20660;-84
2023/04/25 12:09:37;;;;;;;9.30;8.60;;;13.50;1.00;;;;;;2614655;54;20145;-84
2023/04/25 12:15:25;;;;;;;13.33;12.63;;;12.80;1.00;;;;;;2616312;39;20542;-83
2023/04/25 12:21:13;;;;;;;10.13;9.67;;;10.70;1.00;;;;;;2614127;54;20527;-82
2023/04/25 12:27:03;;;;;;;11.67;10.53;;;10.60;1.00;;;;;;2613966;54;20138;-82
2023/04/25 12:29:54;;;;;;;11.63;10.93;;;11.30;1.00;;;;;;2614844;54;20423;-83
2023/04/25 12:32:20;;;;;;;11.27;10.47;;;11.70;1.00;;;;;;2613573;54;20424;-84
2023/04/25 12:38:08;;;;;;;11.70;11.10;;;11.40;1.00;;;;;;2615207;54;20382;-82
2023/04/25 12:43:56;;;;;;;11.10;10.60;;;11.90;1.00;;;;;;2614925;54;20655;-81
2023/04/25 12:49:44;;;;;;;12.23;11.43;;;11.40;1.00;;;;;;2613730;54;20412;-83
2023/04/25 12:55:32;;;;;;;16.70;12.80;;;10.90;1.00;;;;;;2614193;39;20672;-82
2023/04/25 13:01:23;;;;;;;13.17;12.37;;;10.20;2.70;;;;;;2612331;54;20615;-82
2023/04/25 13:07:11;;;;;;;13.47;12.70;;;9.90;12.30;;;;;;2615484;39;20918;-82
2023/04/25 13:13:02;;;;;;;14.13;13.03;;;9.50;24.40;;;;;;2615865;54;20162;-82
2023/04/25 13:18:50;;;;;;;12.10;11.50;;;9.80;20.50;;;;;;2614823;54;20879;-81
2023/04/25 13:24:38;;;;;;;11.87;10.87;;;10.10;18.70;;;;;;2614364;54;20399;-78
2023/04/25 13:34:28;;;;;;;12.60;10.67;;;9.40;16.60;;;;;;2613624;54;20431;-79
2023/04/25 13:40:16;;;;;;;10.50;9.63;;;9.80;20.00;;;;;;2614138;54;20386;-79
2023/04/25 13:46:04;;;;;;;10.80;10.27;;;10.20;15.60;;;;;;2614711;54;20129;-80
2023/04/25 13:51:52;;;;;;;10.90;10.40;;;11.30;6.60;;;;;;2613718;54;20150;-78
2023/04/25 13:57:40;;;;;;;11.27;10.47;;;11.60;1.00;;;;;;2613832;54;20166;-79
2023/04/25 14:03:27;;;;;;;11.30;10.70;;;12.20;1.00;;;;;;2614615;54;20170;-79
2023/04/25 14:09:15;;;;;;;11.10;10.50;;;12.70;1.00;;;;;;2614326;54;20587;-78
2023/04/25 14:15:04;;;;;;;11.90;11.40;;;12.60;1.00;;;;;;2614739;39;20573;-79
2023/04/25 14:20:52;;;;;;;13.40;12.17;;;13.50;1.00;;;;;;2613541;54;20382;-82
2023/04/25 14:26:40;;;;;;;14.50;13.70;;;14.10;1.00;;;;;;2615262;54;20131;-79
2023/04/25 14:29:56;;;;;;;13.23;12.53;;;13.50;1.00;;;;;;2614407;54;20415;-78
2023/04/25 14:32:22;;;;;;;10.70;10.20;;;14.30;1.00;;;;;;2613658;54;20423;-80
2023/04/25 14:38:10;;;;;;;11.33;10.83;;;12.30;1.00;;;;;;2610399;54;21012;-80
2023/04/25 14:43:57;;;;;;;11.13;10.63;;;12.50;1.00;;;;;;2615049;54;20149;-80
2023/04/25 14:49:50;;;;;;;12.00;11.37;;;12.00;1.00;;;;;;2610584;54;20671;-80
2023/04/25 14:55:40;;;;;;;12.07;11.47;;;11.60;1.00;;;;;;2614705;54;20399;-79
2023/04/25 15:01:28;;;;;;;12.10;11.57;;;11.10;1.00;;;;;;2615921;54;20395;-80
2023/04/25 15:07:16;;;;;;;11.80;10.90;;;10.60;1.00;;;;;;2613107;54;20394;-80
2023/04/25 15:13:04;;;;;;;10.90;10.40;;;10.90;3.30;;;;;;2613732;54;20130;-80
2023/04/25 15:18:52;;;;;;;12.50;11.80;;;11.60;1.00;;;;;;2615204;54;20395;-80
2023/04/25 15:21:55;;;;;;;12.20;11.50;;;12.20;1.00;;;;;;2614097;47;20416;-79
2023/04/25 15:24:21;;;;;;;10.83;10.33;;;12.70;1.00;;;;;;2614210;54;20169;-82
2023/04/25 15:40:31;;;;;;;10.33;9.63;;;12.30;1.00;;;;;;2613588;46;20437;-80
2023/04/25 15:46:20;;;;;;;12.20;11.37;;;11.90;1.00;;;;;;2612807;54;20252;-81
2023/04/25 15:52:08;;;;;;;11.17;10.57;;;12.10;1.00;;;;;;2612707;39;20769;-81
2023/04/25 15:57:55;;;;;;;12.03;11.07;;;11.30;1.00;;;;;;2611493;39;20607;-81
2023/04/25 16:03:41;;;;;;;11.10;10.60;;;11.00;1.00;;;;;;2612791;54;20387;-79
2023/04/25 16:09:29;;;;;;;9.60;9.10;;;12.10;1.00;;;;;;2612021;54;20177;-80
2023/04/25 16:15:18;;;;;;;12.50;11.57;;;12.00;1.00;;;;;;2613106;54;20399;-80
2023/04/25 16:21:05;;;;;;;11.13;10.30;;;11.50;1.00;;;;;;2613262;54;20423;-81
2023/04/25 16:26:53;;;;;;;12.90;11.90;;;10.80;1.00;;;;;;2613792;54;20185;-83
2023/04/25 16:32:41;;;;;;;11.13;10.47;;;11.40;1.00;;;;;;2614159;54;20130;-80
2023/04/25 16:38:34;;;;;;;11.47;10.97;;;11.00;1.00;;;;;;2614310;54;20139;-81
2023/04/25 16:44:22;;;;;;;11.37;10.23;;;12.10;1.00;;;;;;2614836;54;20394;-81
2023/04/25 16:50:15;;;;;;;11.27;10.57;;;11.00;1.00;;;;;;2614034;54;20137;-82
2023/04/25 16:56:03;;;;;;;12.23;11.33;;;10.40;1.00;;;;;;2613528;54;20499;-81
2023/04/25 17:01:51;;;;;;;13.67;12.57;;;10.20;1.00;;;;;;2613438;54;20395;-82
2023/04/25 17:07:39;;;;;;;11.63;10.93;;;9.90;2.50;;;;;;2614612;54;20214;-81
2023/04/25 17:13:27;;;;;;;14.93;13.83;;;9.80;2.90;;;;;;2614208;54;20165;-81
2023/04/25 17:19:15;;;;;;;12.13;11.40;;;9.90;2.10;;;;;;2614387;54;20434;-83
2023/04/25 17:25:04;;;;;;;11.80;11.00;;;9.90;2.90;;;;;;2615995;54;20154;-81
2023/04/25 17:30:51;;;;;;;11.60;11.00;;;10.00;1.00;;;;;;2615583;39;20760;-82
2023/04/25 17:36:39;;;;;;;12.83;12.00;;;9.90;1.00;;;;;;2615413;54;20285;-81
2023/04/25 17:42:27;;;;;;;12.27;11.33;;;9.70;1.00;;;;;;2613445;39;20212;-82
2023/04/25 17:48:15;;;;;;;11.30;10.63;;;9.60;1.00;;;;;;2615074;54;20146;-83
2023/04/25 17:54:03;;;;;;;11.40;10.70;;;9.30;2.30;;;;;;2623040;39;20511;-82
2023/04/25 17:59:52;;;;;;;13.30;12.40;;;9.20;3.30;;;;;;2616741;54;20415;-82
2023/04/25 18:05:41;;;;;;;12.10;11.20;;;9.10;5.30;;;;;;2616418;39;20767;-82
2023/04/25 18:11:29;;;;;;;13.73;12.53;;;9.00;5.80;;;;;;2622332;54;24730;-82
2023/04/25 18:17:17;;;;;;;12.33;11.60;;;8.90;7.50;;;;;;2625331;54;20460;-82
2023/04/25 18:23:09;;;;;;;12.37;11.47;;;8.80;8.30;;;;;;2627270;54;20399;-82
2023/04/25 18:28:57;;;;;;;14.60;13.40;;;8.60;9.50;;;;;;2626827;54;20378;-82
2023/04/25 18:39:04;;;;;;;11.60;10.70;;;8.30;12.80;;;;;;2626271;54;20435;-82
2023/04/25 18:44:52;;;;;;;11.47;10.77;;;8.10;11.90;;;;;;2628015;54;20379;-82
2023/04/25 18:50:42;;;;;;;11.20;10.47;;;7.90;14.50;;;;;;2623972;54;20549;-81
2023/04/25 18:56:31;;;;;;;12.43;11.57;;;7.70;17.80;;;;;;2619946;54;20491;-83
2023/04/25 19:02:21;;;;;;;12.90;11.60;;;7.80;17.60;;;;;;2617632;54;20763;-83
2023/04/25 19:08:12;;;;;;;12.60;11.60;;;7.80;15.70;;;;;;2617865;54;20431;-84
2023/04/25 19:14:00;;;;;;;11.67;10.57;;;7.60;19.20;;;;;;2617547;54;20374;-84
2023/04/25 19:19:49;;;;;;;14.43;13.50;;;7.30;26.00;;;;;;2616814;54;20138;-84
2023/04/25 19:25:37;;;;;;;20.57;17.90;;;7.20;30.70;;;;;;2615580;54;20379;-83
2023/04/25 19:31:26;;;;;;;16.23;14.63;;;7.00;36.30;;;;;;2615420;54;20118;-84
2023/04/25 19:34:30;;;;;;;12.90;11.73;;;6.90;38.40;;;;;;2614093;47;20379;-83
2023/04/25 19:43:30;;;;;;;11.03;10.23;;;7.00;39.80;;;;;;2615414;54;20399;-84
2023/04/25 19:49:20;;;;;;;12.70;11.57;;;6.90;40.10;;;;;;2614057;54;20151;-84
2023/04/25 19:55:09;;;;;;;11.07;10.03;;;6.90;36.40;;;;;;2615387;54;20932;-83
2023/04/25 20:00:57;;;;;;;10.07;9.37;;;6.90;31.50;;;;;;2616392;54;20419;-83
2023/04/25 20:06:45;;;;;;;10.43;9.80;;;6.70;37.20;;;;;;2616025;54;20370;-84
2023/04/25 20:12:36;;;;;;;10.60;9.93;;;6.40;46.30;;;;;;2616180;54;20166;-82
2023/04/25 20:18:24;;;;;;;10.80;10.00;;;6.30;54.00;;;;;;2615421;54;20394;-83
2023/04/25 20:24:12;;;;;;;10.80;10.10;;;5.90;60.30;;;;;;2616187;54;20211;-83
2023/04/25 20:30:03;;;;;;;11.97;10.70;;;5.70;82.10;;;;;;2614333;54;20158;-83
2023/04/25 20:39:17;;;;;;;13.33;10.40;;;5.00;99.90;;;;;;2615451;54;20443;-83
2023/04/25 20:45:06;;;;;;;9.50;8.90;;;4.70;99.90;;;;;;2615484;54;20415;-83
2023/04/25 20:50:55;;;;;;;9.80;8.97;;;4.80;99.90;;;;;;2613800;54;20371;-84
2023/04/25 20:56:42;;;;;;;11.47;10.40;;;4.70;99.90;;;;;;2614704;54;20382;-83
2023/04/25 21:02:30;;;;;;;10.10;9.40;;;4.50;99.90;;;;;;2615574;54;20916;-84
2023/04/25 21:08:18;;;;;;;11.07;9.30;;;4.20;99.90;;;;;;2612599;54;20214;-82
2023/04/25 21:14:06;;;;;;;10.67;9.67;;;4.00;99.90;;;;;;2612902;54;20725;-85
2023/04/25 21:19:54;;;;;;;10.20;9.33;;;4.20;99.90;;;;;;2607856;54;20402;-84
2023/04/25 21:25:42;;;;;;;9.63;8.93;;;4.10;99.90;;;;;;2612244;54;20158;-86
2023/04/25 21:31:30;;;;;;;18.13;10.20;;;3.90;99.90;;;;;;2610727;54;20387;-84
2023/04/25 21:34:46;;;;;;;10.03;9.40;;;3.90;99.90;;;;;;2610053;47;20415;-83
2023/04/25 21:37:12;;;;;;;9.37;8.47;;;3.90;99.90;;;;;;2607303;47;20435;-83
2023/04/25 21:43:01;;;;;;;8.63;7.90;;;3.90;99.90;;;;;;2608507;54;20131;-82
2023/04/25 21:48:49;;;;;;;9.23;8.40;;;3.70;99.90;;;;;;2607644;54;20665;-84
2023/04/25 21:54:37;;;;;;;8.83;8.00;;;3.50;99.90;;;;;;2607442;54;20362;-85
2023/04/25 22:00:26;;;;;;;8.40;7.80;;;3.60;99.90;;;;;;2609052;54;20161;-85
2023/04/25 22:06:14;;;;;;;11.20;7.10;;;3.60;99.90;;;;;;2610172;54;21052;-85
2023/04/25 22:12:05;;;;;;;8.30;7.50;;;3.50;99.90;;;;;;2609454;54;20199;-85
2023/04/25 22:17:53;;;;;;;10.47;7.10;;;3.40;99.90;;;;;;2608675;54;20515;-84
2023/04/25 22:23:41;;;;;;;11.20;8.50;;;3.40;99.90;;;;;;2608864;54;20384;-85
2023/04/25 22:29:30;;;;;;;11.30;8.63;;;3.40;99.90;;;;;;2612913;39;20619;-86
2023/04/25 22:39:20;;;;;;;7.83;7.23;;;3.30;99.90;;;;;;2610068;54;20923;-85
2023/04/25 22:45:09;;;;;;;9.57;7.10;;;3.20;99.90;;;;;;2608975;54;20418;-85
2023/04/25 22:51:04;;;;;;;9.30;7.63;;;3.10;99.90;;;;;;2611066;54;20450;-85
2023/04/25 22:56:51;;;;;;;9.87;6.57;;;3.10;99.90;;;;;;2611003;54;20366;-85
2023/04/25 23:02:40;;;;;;;12.03;6.23;;;3.10;99.90;;;;;;2609902;54;21120;-83
2023/04/25 23:08:28;;;;;;;10.93;7.50;;;2.90;99.90;;;;;;2610349;54;20426;-83
2023/04/25 23:14:16;;;;;;;13.93;7.40;;;2.70;99.90;;;;;;2609885;54;20130;-83
2023/04/25 23:20:06;;;;;;;8.57;7.73;;;2.50;99.90;;;;;;2609185;54;20980;-83
2023/04/25 23:25:55;;;;;;;8.20;7.50;;;2.40;99.90;;;;;;2613497;54;20371;-82
2023/04/25 23:31:43;;;;;;;8.60;7.83;;;2.40;99.90;;;;;;2613533;54;20445;-83
2023/04/25 23:34:48;;;;;;;23.03;10.00;;;2.30;99.90;;;;;;2611697;54;20953;-84
2023/04/25 23:37:14;;;;;;;8.60;7.93;;;2.30;99.90;;;;;;2608899;47;20162;-82
2023/04/25 23:43:02;;;;;;;8.60;7.70;;;2.20;99.90;;;;;;2610135;54;20378;-83
2023/04/25 23:48:51;;;;;;;7.67;6.87;;;2.40;99.90;;;;;;2611401;54;20411;-83
2023/04/25 23:54:39;;;;;;;14.93;7.57;;;2.10;99.90;;;;;;2617455;54;20752;-86
